sensor_id;sensor_type;location;lat;lon;timestamp;temperature;humidity
12329;DHT22;6230;52.390;10.256;2024-02-21T00:00:40;11.40;74.70
12329;DHT22;6230;52.390;10.256;2024-02-21T00:03:07;11.40;74.70
12329;DHT22;6230;52.390;10.256;2024-02-21T00:05:32;11.40;74.80
12329;DHT22;6230;52.390;10.256;2024-02-21T00:07:59;11.40;74.80
12329;DHT22;6230;52.390;10.256;2024-02-21T00:10:25;11.40;74.90
12329;DHT22;6230;52.390;10.256;2024-02-21T00:12:51;11.40;74.90
12329;DHT22;6230;52.390;10.256;2024-02-21T00:15:17;11.40;74.90
12329;DHT22;6230;52.390;10.256;2024-02-21T00:17:44;11.40;74.90
12329;DHT22;6230;52.390;10.256;2024-02-21T00:20:10;11.40;74.90
12329;DHT22;6230;52.390;10.256;2024-02-21T00:22:36;11.40;74.90
12329;DHT22;6230;52.390;10.256;2024-02-21T00:25:02;11.40;74.80
12329;DHT22;6230;52.390;10.256;2024-02-21T00:27:27;11.40;74.80
12329;DHT22;6230;52.390;10.256;2024-02-21T00:29:53;11.40;74.80
12329;DHT22;6230;52.390;10.256;2024-02-21T00:32:19;11.40;74.80
12329;DHT22;6230;52.390;10.256;2024-02-21T00:34:44;11.50;74.90
12329;DHT22;6230;52.390;10.256;2024-02-21T00:37:10;11.50;74.80
12329;DHT22;6230;52.390;10.256;2024-02-21T00:39:35;11.50;74.90
12329;DHT22;6230;52.390;10.256;2024-02-21T00:42:02;11.50;74.90
12329;DHT22;6230;52.390;10.256;2024-02-21T00:44:28;11.50;74.90
12329;DHT22;6230;52.390;10.256;2024-02-21T00:46:53;11.50;74.90
12329;DHT22;6230;52.390;10.256;2024-02-21T00:49:19;11.50;74.90
12329;DHT22;6230;52.390;10.256;2024-02-21T00:51:45;11.50;74.80
12329;DHT22;6230;52.390;10.256;2024-02-21T00:54:10;11.50;74.90
12329;DHT22;6230;52.390;10.256;2024-02-21T00:56:36;11.50;75.00
12329;DHT22;6230;52.390;10.256;2024-02-21T00:59:01;11.50;74.90
12329;DHT22;6230;52.390;10.256;2024-02-21T01:01:27;11.50;74.90
12329;DHT22;6230;52.390;10.256;2024-02-21T01:03:53;11.50;74.90
12329;DHT22;6230;52.390;10.256;2024-02-21T01:06:19;11.50;74.90
12329;DHT22;6230;52.390;10.256;2024-02-21T01:08:46;11.50;74.90
12329;DHT22;6230;52.390;10.256;2024-02-21T01:11:12;11.50;74.90
12329;DHT22;6230;52.390;10.256;2024-02-21T01:13:38;11.50;74.90
12329;DHT22;6230;52.390;10.256;2024-02-21T01:16:04;11.60;75.00
12329;DHT22;6230;52.390;10.256;2024-02-21T01:18:29;11.50;74.90
12329;DHT22;6230;52.390;10.256;2024-02-21T01:20:55;11.50;74.90
12329;DHT22;6230;52.390;10.256;2024-02-21T01:23:20;11.50;74.90
12329;DHT22;6230;52.390;10.256;2024-02-21T01:25:46;11.60;75.00
12329;DHT22;6230;52.390;10.256;2024-02-21T01:28:12;11.60;75.00
12329;DHT22;6230;52.390;10.256;2024-02-21T01:30:37;11.50;74.90
12329;DHT22;6230;52.390;10.256;2024-02-21T01:33:03;11.60;75.00
12329;DHT22;6230;52.390;10.256;2024-02-21T01:35:29;11.60;75.10
12329;DHT22;6230;52.390;10.256;2024-02-21T01:37:54;11.50;75.00
12329;DHT22;6230;52.390;10.256;2024-02-21T01:40:20;11.50;75.00
12329;DHT22;6230;52.390;10.256;2024-02-21T01:42:45;11.60;75.00
12329;DHT22;6230;52.390;10.256;2024-02-21T01:45:13;11.60;75.10
12329;DHT22;6230;52.390;10.256;2024-02-21T01:47:38;11.60;75.10
12329;DHT22;6230;52.390;10.256;2024-02-21T01:50:04;11.60;75.10
12329;DHT22;6230;52.390;10.256;2024-02-21T01:52:30;11.50;75.10
12329;DHT22;6230;52.390;10.256;2024-02-21T01:54:57;11.50;75.10
12329;DHT22;6230;52.390;10.256;2024-02-21T01:57:24;11.50;75.10
12329;DHT22;6230;52.390;10.256;2024-02-21T01:59:50;11.50;75.20
12329;DHT22;6230;52.390;10.256;2024-02-21T02:02:15;11.60;75.30
12329;DHT22;6230;52.390;10.256;2024-02-21T02:04:42;11.50;75.20
12329;DHT22;6230;52.390;10.256;2024-02-21T02:07:08;11.60;75.20
12329;DHT22;6230;52.390;10.256;2024-02-21T02:09:34;11.60;75.20
12329;DHT22;6230;52.390;10.256;2024-02-21T02:12:00;11.60;75.20
12329;DHT22;6230;52.390;10.256;2024-02-21T02:14:26;11.60;75.20
12329;DHT22;6230;52.390;10.256;2024-02-21T02:16:51;11.60;75.20
12329;DHT22;6230;52.390;10.256;2024-02-21T02:19:17;11.60;75.20
12329;DHT22;6230;52.390;10.256;2024-02-21T02:21:46;11.60;75.20
12329;DHT22;6230;52.390;10.256;2024-02-21T02:24:19;11.50;75.20
12329;DHT22;6230;52.390;10.256;2024-02-21T02:26:45;11.60;75.20
12329;DHT22;6230;52.390;10.256;2024-02-21T02:29:10;11.60;75.20
12329;DHT22;6230;52.390;10.256;2024-02-21T02:31:36;11.60;75.20
12329;DHT22;6230;52.390;10.256;2024-02-21T02:34:03;11.60;75.20
12329;DHT22;6230;52.390;10.256;2024-02-21T02:36:32;11.60;75.20
12329;DHT22;6230;52.390;10.256;2024-02-21T02:38:57;11.60;75.20
12329;DHT22;6230;52.390;10.256;2024-02-21T02:41:23;11.60;75.20
12329;DHT22;6230;52.390;10.256;2024-02-21T02:43:49;11.60;75.20
12329;DHT22;6230;52.390;10.256;2024-02-21T02:46:14;11.60;75.20
12329;DHT22;6230;52.390;10.256;2024-02-21T02:48:40;11.60;75.20
12329;DHT22;6230;52.390;10.256;2024-02-21T02:51:05;11.60;75.10
12329;DHT22;6230;52.390;10.256;2024-02-21T02:53:31;11.60;75.10
12329;DHT22;6230;52.390;10.256;2024-02-21T02:55:56;11.60;75.10
12329;DHT22;6230;52.390;10.256;2024-02-21T02:58:22;11.60;75.10
12329;DHT22;6230;52.390;10.256;2024-02-21T03:00:48;11.60;75.10
12329;DHT22;6230;52.390;10.256;2024-02-21T03:03:14;11.70;75.20
12329;DHT22;6230;52.390;10.256;2024-02-21T03:05:39;11.60;75.10
12329;DHT22;6230;52.390;10.256;2024-02-21T03:08:05;11.60;75.10
12329;DHT22;6230;52.390;10.256;2024-02-21T03:10:33;11.60;75.10
12329;DHT22;6230;52.390;10.256;2024-02-21T03:12:59;11.60;75.10
12329;DHT22;6230;52.390;10.256;2024-02-21T03:15:25;11.60;75.10
12329;DHT22;6230;52.390;10.256;2024-02-21T03:17:50;11.60;75.10
12329;DHT22;6230;52.390;10.256;2024-02-21T03:20:16;11.60;75.20
12329;DHT22;6230;52.390;10.256;2024-02-21T03:22:42;11.60;75.10
12329;DHT22;6230;52.390;10.256;2024-02-21T03:25:08;11.60;75.10
12329;DHT22;6230;52.390;10.256;2024-02-21T03:27:34;11.60;75.20
12329;DHT22;6230;52.390;10.256;2024-02-21T03:30:00;11.60;75.20
12329;DHT22;6230;52.390;10.256;2024-02-21T03:32:26;11.60;75.20
12329;DHT22;6230;52.390;10.256;2024-02-21T03:34:51;11.60;75.20
12329;DHT22;6230;52.390;10.256;2024-02-21T03:37:17;11.60;75.30
12329;DHT22;6230;52.390;10.256;2024-02-21T03:39:42;11.60;75.20
12329;DHT22;6230;52.390;10.256;2024-02-21T03:42:08;11.60;75.20
12329;DHT22;6230;52.390;10.256;2024-02-21T03:44:34;11.60;75.20
12329;DHT22;6230;52.390;10.256;2024-02-21T03:47:00;11.60;75.20
12329;DHT22;6230;52.390;10.256;2024-02-21T03:49:26;11.60;75.20
12329;DHT22;6230;52.390;10.256;2024-02-21T03:51:51;11.60;75.30
12329;DHT22;6230;52.390;10.256;2024-02-21T03:54:18;11.60;75.30
12329;DHT22;6230;52.390;10.256;2024-02-21T03:56:43;11.60;75.30
12329;DHT22;6230;52.390;10.256;2024-02-21T03:59:09;11.60;75.30
12329;DHT22;6230;52.390;10.256;2024-02-21T04:01:35;11.60;75.30
12329;DHT22;6230;52.390;10.256;2024-02-21T04:04:01;11.60;76.10
12329;DHT22;6230;52.390;10.256;2024-02-21T04:06:26;11.60;75.20
12329;DHT22;6230;52.390;10.256;2024-02-21T04:08:52;11.60;75.20
12329;DHT22;6230;52.390;10.256;2024-02-21T04:11:17;11.60;75.20
12329;DHT22;6230;52.390;10.256;2024-02-21T04:13:44;11.70;75.20
12329;DHT22;6230;52.390;10.256;2024-02-21T04:16:10;11.70;75.30
12329;DHT22;6230;52.390;10.256;2024-02-21T04:18:36;11.70;75.10
12329;DHT22;6230;52.390;10.256;2024-02-21T04:21:02;11.70;75.10
12329;DHT22;6230;52.390;10.256;2024-02-21T04:23:27;11.70;75.10
12329;DHT22;6230;52.390;10.256;2024-02-21T04:25:53;11.70;75.00
12329;DHT22;6230;52.390;10.256;2024-02-21T04:28:18;11.70;75.00
12329;DHT22;6230;52.390;10.256;2024-02-21T04:30:44;11.70;75.00
12329;DHT22;6230;52.390;10.256;2024-02-21T04:33:10;11.80;74.90
12329;DHT22;6230;52.390;10.256;2024-02-21T04:35:38;11.80;74.90
12329;DHT22;6230;52.390;10.256;2024-02-21T04:38:05;11.80;74.90
12329;DHT22;6230;52.390;10.256;2024-02-21T04:40:30;11.70;74.90
12329;DHT22;6230;52.390;10.256;2024-02-21T04:42:56;11.70;74.90
12329;DHT22;6230;52.390;10.256;2024-02-21T04:45:22;11.70;74.80
12329;DHT22;6230;52.390;10.256;2024-02-21T04:47:48;11.70;74.80
12329;DHT22;6230;52.390;10.256;2024-02-21T04:50:13;11.80;74.90
12329;DHT22;6230;52.390;10.256;2024-02-21T04:52:39;11.70;74.80
12329;DHT22;6230;52.390;10.256;2024-02-21T04:55:05;11.70;75.30
12329;DHT22;6230;52.390;10.256;2024-02-21T04:57:31;11.70;74.90
12329;DHT22;6230;52.390;10.256;2024-02-21T04:59:57;11.80;74.90
12329;DHT22;6230;52.390;10.256;2024-02-21T05:02:22;11.80;74.80
12329;DHT22;6230;52.390;10.256;2024-02-21T05:04:49;11.80;74.90
12329;DHT22;6230;52.390;10.256;2024-02-21T05:07:15;11.80;74.80
12329;DHT22;6230;52.390;10.256;2024-02-21T05:09:42;11.80;74.80
12329;DHT22;6230;52.390;10.256;2024-02-21T05:12:08;11.80;74.80
12329;DHT22;6230;52.390;10.256;2024-02-21T05:14:34;11.80;74.80
12329;DHT22;6230;52.390;10.256;2024-02-21T05:16:59;11.80;74.70
12329;DHT22;6230;52.390;10.256;2024-02-21T05:19:25;11.80;74.60
12329;DHT22;6230;52.390;10.256;2024-02-21T05:21:50;11.80;74.70
12329;DHT22;6230;52.390;10.256;2024-02-21T05:24:16;11.80;74.60
12329;DHT22;6230;52.390;10.256;2024-02-21T05:26:42;11.80;74.70
12329;DHT22;6230;52.390;10.256;2024-02-21T05:29:07;11.80;74.70
12329;DHT22;6230;52.390;10.256;2024-02-21T05:34:17;11.80;74.90
12329;DHT22;6230;52.390;10.256;2024-02-21T05:36:43;11.80;74.70
12329;DHT22;6230;52.390;10.256;2024-02-21T05:39:09;11.80;74.70
12329;DHT22;6230;52.390;10.256;2024-02-21T05:41:35;11.70;74.70
12329;DHT22;6230;52.390;10.256;2024-02-21T05:44:00;11.70;74.70
12329;DHT22;6230;52.390;10.256;2024-02-21T05:46:26;11.70;74.70
12329;DHT22;6230;52.390;10.256;2024-02-21T05:48:51;11.70;74.80
12329;DHT22;6230;52.390;10.256;2024-02-21T05:51:17;11.80;74.70
12329;DHT22;6230;52.390;10.256;2024-02-21T05:53:42;11.70;74.70
12329;DHT22;6230;52.390;10.256;2024-02-21T05:56:11;11.70;75.50
12329;DHT22;6230;52.390;10.256;2024-02-21T05:58:37;11.80;74.80
12329;DHT22;6230;52.390;10.256;2024-02-21T06:01:03;11.70;75.40
12329;DHT22;6230;52.390;10.256;2024-02-21T06:03:29;11.70;74.70
12329;DHT22;6230;52.390;10.256;2024-02-21T06:05:55;11.80;74.70
12329;DHT22;6230;52.390;10.256;2024-02-21T06:08:21;11.80;74.80
12329;DHT22;6230;52.390;10.256;2024-02-21T06:10:46;11.80;74.70
12329;DHT22;6230;52.390;10.256;2024-02-21T06:13:14;11.80;74.70
12329;DHT22;6230;52.390;10.256;2024-02-21T06:15:39;11.80;74.70
12329;DHT22;6230;52.390;10.256;2024-02-21T06:18:05;11.80;74.70
12329;DHT22;6230;52.390;10.256;2024-02-21T06:20:30;11.80;74.70
12329;DHT22;6230;52.390;10.256;2024-02-21T06:22:56;11.70;74.70
12329;DHT22;6230;52.390;10.256;2024-02-21T06:25:22;11.70;74.70
12329;DHT22;6230;52.390;10.256;2024-02-21T06:27:48;11.70;74.70
12329;DHT22;6230;52.390;10.256;2024-02-21T06:30:13;11.70;74.70
12329;DHT22;6230;52.390;10.256;2024-02-21T06:32:39;11.70;74.70
12329;DHT22;6230;52.390;10.256;2024-02-21T06:35:05;11.70;74.70
12329;DHT22;6230;52.390;10.256;2024-02-21T06:37:31;11.70;74.80
12329;DHT22;6230;52.390;10.256;2024-02-21T06:39:57;11.60;74.80
12329;DHT22;6230;52.390;10.256;2024-02-21T06:42:25;11.60;74.80
12329;DHT22;6230;52.390;10.256;2024-02-21T06:44:51;11.60;74.90
12329;DHT22;6230;52.390;10.256;2024-02-21T06:47:17;11.60;74.90
12329;DHT22;6230;52.390;10.256;2024-02-21T06:49:42;11.60;74.90
12329;DHT22;6230;52.390;10.256;2024-02-21T06:52:08;11.60;74.90
12329;DHT22;6230;52.390;10.256;2024-02-21T06:54:33;11.60;74.80
12329;DHT22;6230;52.390;10.256;2024-02-21T06:56:59;11.70;74.90
12329;DHT22;6230;52.390;10.256;2024-02-21T06:59:25;11.70;74.80
12329;DHT22;6230;52.390;10.256;2024-02-21T07:01:53;11.70;74.80
12329;DHT22;6230;52.390;10.256;2024-02-21T07:04:20;11.70;74.80
12329;DHT22;6230;52.390;10.256;2024-02-21T07:06:45;11.70;74.80
12329;DHT22;6230;52.390;10.256;2024-02-21T07:09:11;11.70;74.70
12329;DHT22;6230;52.390;10.256;2024-02-21T07:11:37;11.70;74.80
12329;DHT22;6230;52.390;10.256;2024-02-21T07:14:02;11.70;74.80
12329;DHT22;6230;52.390;10.256;2024-02-21T07:16:28;11.70;74.70
12329;DHT22;6230;52.390;10.256;2024-02-21T07:18:55;11.80;74.70
12329;DHT22;6230;52.390;10.256;2024-02-21T07:21:20;11.70;74.70
12329;DHT22;6230;52.390;10.256;2024-02-21T07:23:46;11.70;74.70
12329;DHT22;6230;52.390;10.256;2024-02-21T07:26:11;11.70;74.60
12329;DHT22;6230;52.390;10.256;2024-02-21T07:28:37;11.70;74.70
12329;DHT22;6230;52.390;10.256;2024-02-21T07:31:03;11.70;74.80
12329;DHT22;6230;52.390;10.256;2024-02-21T07:33:28;11.70;74.70
12329;DHT22;6230;52.390;10.256;2024-02-21T07:35:56;11.70;74.80
12329;DHT22;6230;52.390;10.256;2024-02-21T07:38:21;11.70;74.80
12329;DHT22;6230;52.390;10.256;2024-02-21T07:40:47;11.80;74.90
12329;DHT22;6230;52.390;10.256;2024-02-21T07:43:13;11.70;74.90
12329;DHT22;6230;52.390;10.256;2024-02-21T07:45:39;11.80;74.90
12329;DHT22;6230;52.390;10.256;2024-02-21T07:48:05;11.80;74.90
12329;DHT22;6230;52.390;10.256;2024-02-21T07:50:31;11.80;74.90
12329;DHT22;6230;52.390;10.256;2024-02-21T07:52:57;11.80;74.90
12329;DHT22;6230;52.390;10.256;2024-02-21T07:55:23;11.80;74.80
12329;DHT22;6230;52.390;10.256;2024-02-21T07:57:48;11.80;74.80
12329;DHT22;6230;52.390;10.256;2024-02-21T08:00:15;11.90;74.90
12329;DHT22;6230;52.390;10.256;2024-02-21T08:02:45;11.90;74.80
12329;DHT22;6230;52.390;10.256;2024-02-21T08:05:11;11.90;74.80
12329;DHT22;6230;52.390;10.256;2024-02-21T08:07:38;11.90;74.80
12329;DHT22;6230;52.390;10.256;2024-02-21T08:10:04;11.90;74.80
12329;DHT22;6230;52.390;10.256;2024-02-21T08:12:29;12.00;74.90
12329;DHT22;6230;52.390;10.256;2024-02-21T08:14:55;12.00;74.90
12329;DHT22;6230;52.390;10.256;2024-02-21T08:17:21;12.00;74.80
12329;DHT22;6230;52.390;10.256;2024-02-21T08:19:46;12.00;74.90
12329;DHT22;6230;52.390;10.256;2024-02-21T08:22:14;12.00;74.80
12329;DHT22;6230;52.390;10.256;2024-02-21T08:24:40;12.10;74.80
12329;DHT22;6230;52.390;10.256;2024-02-21T08:27:05;12.10;74.70
12329;DHT22;6230;52.390;10.256;2024-02-21T08:29:31;12.10;74.60
12329;DHT22;6230;52.390;10.256;2024-02-21T08:31:57;12.10;74.60
12329;DHT22;6230;52.390;10.256;2024-02-21T08:34:22;12.10;74.70
12329;DHT22;6230;52.390;10.256;2024-02-21T08:36:48;12.10;74.60
12329;DHT22;6230;52.390;10.256;2024-02-21T08:39:13;12.10;74.80
12329;DHT22;6230;52.390;10.256;2024-02-21T08:41:42;12.10;74.60
12329;DHT22;6230;52.390;10.256;2024-02-21T08:44:08;12.10;74.60
12329;DHT22;6230;52.390;10.256;2024-02-21T08:46:33;12.10;74.60
12329;DHT22;6230;52.390;10.256;2024-02-21T08:48:59;12.10;74.70
12329;DHT22;6230;52.390;10.256;2024-02-21T08:51:25;12.10;74.60
12329;DHT22;6230;52.390;10.256;2024-02-21T08:53:50;12.10;74.60
12329;DHT22;6230;52.390;10.256;2024-02-21T08:56:17;12.10;74.60
12329;DHT22;6230;52.390;10.256;2024-02-21T08:58:43;12.10;74.70
12329;DHT22;6230;52.390;10.256;2024-02-21T09:01:08;12.10;74.80
12329;DHT22;6230;52.390;10.256;2024-02-21T09:03:37;12.10;74.70
12329;DHT22;6230;52.390;10.256;2024-02-21T09:06:05;12.10;74.70
12329;DHT22;6230;52.390;10.256;2024-02-21T09:08:30;12.10;74.70
12329;DHT22;6230;52.390;10.256;2024-02-21T09:10:56;12.10;74.60
12329;DHT22;6230;52.390;10.256;2024-02-21T09:13:22;12.10;74.60
12329;DHT22;6230;52.390;10.256;2024-02-21T09:15:48;12.20;74.70
12329;DHT22;6230;52.390;10.256;2024-02-21T09:18:14;12.20;74.70
12329;DHT22;6230;52.390;10.256;2024-02-21T09:20:40;12.20;74.60
12329;DHT22;6230;52.390;10.256;2024-02-21T09:23:05;12.30;74.60
12329;DHT22;6230;52.390;10.256;2024-02-21T09:25:31;12.30;74.60
12329;DHT22;6230;52.390;10.256;2024-02-21T09:27:57;12.30;74.60
12329;DHT22;6230;52.390;10.256;2024-02-21T09:30:23;12.40;74.70
12329;DHT22;6230;52.390;10.256;2024-02-21T09:32:49;12.40;74.60
12329;DHT22;6230;52.390;10.256;2024-02-21T09:35:15;12.50;74.60
12329;DHT22;6230;52.390;10.256;2024-02-21T09:37:40;12.50;74.60
12329;DHT22;6230;52.390;10.256;2024-02-21T09:40:07;12.60;74.60
12329;DHT22;6230;52.390;10.256;2024-02-21T09:42:37;12.70;74.70
12329;DHT22;6230;52.390;10.256;2024-02-21T09:45:08;12.80;74.60
12329;DHT22;6230;52.390;10.256;2024-02-21T09:47:44;12.90;74.60
12329;DHT22;6230;52.390;10.256;2024-02-21T09:50:12;13.00;74.90
12329;DHT22;6230;52.390;10.256;2024-02-21T09:52:39;13.10;74.50
12329;DHT22;6230;52.390;10.256;2024-02-21T09:55:07;13.10;74.40
12329;DHT22;6230;52.390;10.256;2024-02-21T09:57:36;13.10;74.40
12329;DHT22;6230;52.390;10.256;2024-02-21T10:00:02;13.20;74.40
12329;DHT22;6230;52.390;10.256;2024-02-21T10:02:32;13.40;74.40
12329;DHT22;6230;52.390;10.256;2024-02-21T10:04:58;13.40;74.20
12329;DHT22;6230;52.390;10.256;2024-02-21T10:07:24;13.50;74.20
12329;DHT22;6230;52.390;10.256;2024-02-21T10:10:00;13.50;73.90
12329;DHT22;6230;52.390;10.256;2024-02-21T10:12:26;13.50;73.60
12329;DHT22;6230;52.390;10.256;2024-02-21T10:15:03;13.40;73.30
12329;DHT22;6230;52.390;10.256;2024-02-21T10:17:31;13.40;73.10
12329;DHT22;6230;52.390;10.256;2024-02-21T10:20:07;13.40;73.20
12329;DHT22;6230;52.390;10.256;2024-02-21T10:22:34;13.30;73.00
12329;DHT22;6230;52.390;10.256;2024-02-21T10:25:11;13.30;72.90
12329;DHT22;6230;52.390;10.256;2024-02-21T10:27:38;13.30;72.60
12329;DHT22;6230;52.390;10.256;2024-02-21T10:30:14;13.30;72.40
12329;DHT22;6230;52.390;10.256;2024-02-21T10:32:53;13.30;72.50
12329;DHT22;6230;52.390;10.256;2024-02-21T10:35:32;13.30;72.60
12329;DHT22;6230;52.390;10.256;2024-02-21T10:37:59;13.40;72.70
12329;DHT22;6230;52.390;10.256;2024-02-21T10:40:29;13.40;72.60
12329;DHT22;6230;52.390;10.256;2024-02-21T10:43:00;13.40;72.40
12329;DHT22;6230;52.390;10.256;2024-02-21T10:47:56;13.50;72.30
12329;DHT22;6230;52.390;10.256;2024-02-21T10:50:25;13.50;72.50
12329;DHT22;6230;52.390;10.256;2024-02-21T10:53:13;13.50;72.40
12329;DHT22;6230;52.390;10.256;2024-02-21T10:55:48;13.50;72.30
12329;DHT22;6230;52.390;10.256;2024-02-21T10:58:16;13.50;72.30
12329;DHT22;6230;52.390;10.256;2024-02-21T11:00:42;13.50;72.80
12329;DHT22;6230;52.390;10.256;2024-02-21T11:03:08;13.50;72.00
12329;DHT22;6230;52.390;10.256;2024-02-21T11:05:34;13.50;71.90
12329;DHT22;6230;52.390;10.256;2024-02-21T11:08:00;13.40;71.90
12329;DHT22;6230;52.390;10.256;2024-02-21T11:10:27;13.50;72.10
12329;DHT22;6230;52.390;10.256;2024-02-21T11:12:53;13.40;71.90
12329;DHT22;6230;52.390;10.256;2024-02-21T11:15:25;13.50;72.00
12329;DHT22;6230;52.390;10.256;2024-02-21T11:17:56;13.50;72.10
12329;DHT22;6230;52.390;10.256;2024-02-21T11:20:35;13.50;72.20
12329;DHT22;6230;52.390;10.256;2024-02-21T11:23:01;13.60;72.30
12329;DHT22;6230;52.390;10.256;2024-02-21T11:25:27;13.70;73.00
12329;DHT22;6230;52.390;10.256;2024-02-21T11:28:01;13.70;72.00
12329;DHT22;6230;52.390;10.256;2024-02-21T11:30:29;13.70;71.80
12329;DHT22;6230;52.390;10.256;2024-02-21T11:33:06;13.80;71.60
12329;DHT22;6230;52.390;10.256;2024-02-21T11:35:33;13.80;71.50
12329;DHT22;6230;52.390;10.256;2024-02-21T11:38:12;13.80;71.40
12329;DHT22;6230;52.390;10.256;2024-02-21T11:40:46;13.80;71.10
12329;DHT22;6230;52.390;10.256;2024-02-21T11:43:11;13.70;71.00
12329;DHT22;6230;52.390;10.256;2024-02-21T11:45:37;13.70;70.80
12329;DHT22;6230;52.390;10.256;2024-02-21T11:48:06;13.70;71.00
12329;DHT22;6230;52.390;10.256;2024-02-21T11:50:31;13.70;71.10
12329;DHT22;6230;52.390;10.256;2024-02-21T11:52:57;13.80;71.20
12329;DHT22;6230;52.390;10.256;2024-02-21T11:55:23;13.80;70.90
12329;DHT22;6230;52.390;10.256;2024-02-21T11:57:49;13.90;71.00
12329;DHT22;6230;52.390;10.256;2024-02-21T12:00:15;13.90;70.60
12329;DHT22;6230;52.390;10.256;2024-02-21T12:02:42;14.00;70.90
12329;DHT22;6230;52.390;10.256;2024-02-21T12:05:08;14.00;70.80
12329;DHT22;6230;52.390;10.256;2024-02-21T12:07:33;14.10;70.70
12329;DHT22;6230;52.390;10.256;2024-02-21T12:10:01;14.20;70.70
12329;DHT22;6230;52.390;10.256;2024-02-21T12:12:27;14.20;70.60
12329;DHT22;6230;52.390;10.256;2024-02-21T12:14:55;14.20;70.10
12329;DHT22;6230;52.390;10.256;2024-02-21T12:17:21;14.20;69.70
12329;DHT22;6230;52.390;10.256;2024-02-21T12:19:46;14.20;69.60
12329;DHT22;6230;52.390;10.256;2024-02-21T12:22:18;14.20;69.80
12329;DHT22;6230;52.390;10.256;2024-02-21T12:24:45;14.20;70.00
12329;DHT22;6230;52.390;10.256;2024-02-21T12:27:13;14.30;69.70
12329;DHT22;6230;52.390;10.256;2024-02-21T12:29:39;14.30;69.40
12329;DHT22;6230;52.390;10.256;2024-02-21T12:32:05;14.30;69.20
12329;DHT22;6230;52.390;10.256;2024-02-21T12:34:30;14.30;69.10
12329;DHT22;6230;52.390;10.256;2024-02-21T12:36:58;14.30;69.10
12329;DHT22;6230;52.390;10.256;2024-02-21T12:39:24;14.30;69.10
12329;DHT22;6230;52.390;10.256;2024-02-21T12:41:52;14.30;68.80
12329;DHT22;6230;52.390;10.256;2024-02-21T12:44:18;14.20;68.70
12329;DHT22;6230;52.390;10.256;2024-02-21T12:46:44;14.20;68.90
12329;DHT22;6230;52.390;10.256;2024-02-21T12:49:10;14.30;68.70
12329;DHT22;6230;52.390;10.256;2024-02-21T12:51:36;14.20;68.70
12329;DHT22;6230;52.390;10.256;2024-02-21T12:54:02;14.20;69.60
12329;DHT22;6230;52.390;10.256;2024-02-21T12:56:30;14.20;68.70
12329;DHT22;6230;52.390;10.256;2024-02-21T12:58:57;14.20;68.70
12329;DHT22;6230;52.390;10.256;2024-02-21T13:01:22;14.20;68.70
12329;DHT22;6230;52.390;10.256;2024-02-21T13:03:48;14.20;68.80
12329;DHT22;6230;52.390;10.256;2024-02-21T13:06:13;14.30;68.90
12329;DHT22;6230;52.390;10.256;2024-02-21T13:08:39;14.30;68.80
12329;DHT22;6230;52.390;10.256;2024-02-21T13:11:05;14.40;69.10
12329;DHT22;6230;52.390;10.256;2024-02-21T13:13:31;14.40;68.90
12329;DHT22;6230;52.390;10.256;2024-02-21T13:15:58;14.40;68.60
12329;DHT22;6230;52.390;10.256;2024-02-21T13:18:23;14.40;68.70
12329;DHT22;6230;52.390;10.256;2024-02-21T13:20:49;14.40;68.90
12329;DHT22;6230;52.390;10.256;2024-02-21T13:23:14;14.40;68.80
12329;DHT22;6230;52.390;10.256;2024-02-21T13:25:40;14.50;69.00
12329;DHT22;6230;52.390;10.256;2024-02-21T13:28:05;14.50;69.20
12329;DHT22;6230;52.390;10.256;2024-02-21T13:30:32;14.60;69.20
12329;DHT22;6230;52.390;10.256;2024-02-21T13:32:57;14.60;69.20
12329;DHT22;6230;52.390;10.256;2024-02-21T13:35:23;14.70;69.10
12329;DHT22;6230;52.390;10.256;2024-02-21T13:37:49;14.80;69.10
12329;DHT22;6230;52.390;10.256;2024-02-21T13:40:15;14.80;69.20
12329;DHT22;6230;52.390;10.256;2024-02-21T13:42:42;14.80;68.80
12329;DHT22;6230;52.390;10.256;2024-02-21T13:45:09;14.80;68.70
12329;DHT22;6230;52.390;10.256;2024-02-21T13:47:35;14.70;68.40
12329;DHT22;6230;52.390;10.256;2024-02-21T13:50:02;14.70;68.20
12329;DHT22;6230;52.390;10.256;2024-02-21T13:52:30;14.60;68.20
12329;DHT22;6230;52.390;10.256;2024-02-21T13:54:56;14.50;68.10
12329;DHT22;6230;52.390;10.256;2024-02-21T13:57:21;14.50;68.30
12329;DHT22;6230;52.390;10.256;2024-02-21T13:59:47;14.40;68.40
12329;DHT22;6230;52.390;10.256;2024-02-21T14:02:13;14.40;68.50
12329;DHT22;6230;52.390;10.256;2024-02-21T14:04:39;14.40;68.50
12329;DHT22;6230;52.390;10.256;2024-02-21T14:07:04;14.40;68.50
12329;DHT22;6230;52.390;10.256;2024-02-21T14:09:30;14.40;68.40
12329;DHT22;6230;52.390;10.256;2024-02-21T14:11:56;14.40;68.40
12329;DHT22;6230;52.390;10.256;2024-02-21T14:14:21;14.40;68.60
12329;DHT22;6230;52.390;10.256;2024-02-21T14:16:47;14.40;68.50
12329;DHT22;6230;52.390;10.256;2024-02-21T14:19:13;14.40;68.60
12329;DHT22;6230;52.390;10.256;2024-02-21T14:21:39;14.50;68.60
12329;DHT22;6230;52.390;10.256;2024-02-21T14:24:05;14.50;68.60
12329;DHT22;6230;52.390;10.256;2024-02-21T14:26:31;14.50;68.60
12329;DHT22;6230;52.390;10.256;2024-02-21T14:29:00;14.50;68.50
12329;DHT22;6230;52.390;10.256;2024-02-21T14:31:25;14.50;68.40
12329;DHT22;6230;52.390;10.256;2024-02-21T14:33:51;14.50;68.30
12329;DHT22;6230;52.390;10.256;2024-02-21T14:36:17;14.50;68.20
12329;DHT22;6230;52.390;10.256;2024-02-21T14:38:43;14.50;68.20
12329;DHT22;6230;52.390;10.256;2024-02-21T14:41:12;14.50;68.00
12329;DHT22;6230;52.390;10.256;2024-02-21T14:43:38;14.40;68.20
12329;DHT22;6230;52.390;10.256;2024-02-21T14:46:04;14.40;68.10
12329;DHT22;6230;52.390;10.256;2024-02-21T14:48:31;14.30;68.00
12329;DHT22;6230;52.390;10.256;2024-02-21T14:50:58;14.30;68.40
12329;DHT22;6230;52.390;10.256;2024-02-21T14:53:23;14.30;67.90
12329;DHT22;6230;52.390;10.256;2024-02-21T14:55:49;14.30;67.90
12329;DHT22;6230;52.390;10.256;2024-02-21T14:58:16;14.30;67.90
12329;DHT22;6230;52.390;10.256;2024-02-21T15:00:43;14.20;67.40
12329;DHT22;6230;52.390;10.256;2024-02-21T15:03:09;14.20;67.60
12329;DHT22;6230;52.390;10.256;2024-02-21T15:05:36;14.20;67.30
12329;DHT22;6230;52.390;10.256;2024-02-21T15:08:01;14.20;67.30
12329;DHT22;6230;52.390;10.256;2024-02-21T15:10:27;14.20;67.10
12329;DHT22;6230;52.390;10.256;2024-02-21T15:12:53;14.10;67.10
12329;DHT22;6230;52.390;10.256;2024-02-21T15:15:18;14.10;67.20
12329;DHT22;6230;52.390;10.256;2024-02-21T15:17:44;14.10;67.40
12329;DHT22;6230;52.390;10.256;2024-02-21T15:20:10;14.10;67.10
12329;DHT22;6230;52.390;10.256;2024-02-21T15:22:36;14.10;67.30
12329;DHT22;6230;52.390;10.256;2024-02-21T15:25:02;14.10;67.00
12329;DHT22;6230;52.390;10.256;2024-02-21T15:27:31;14.00;66.90
12329;DHT22;6230;52.390;10.256;2024-02-21T15:29:57;14.00;66.90